sensor_id;sensor_type;location;lat;lon;timestamp;temperature;humidity
31309;DHT22;17936;52.446;10.840;2023-03-23T00:01:05;12.30;99.90
31309;DHT22;17936;52.446;10.840;2023-03-23T00:03:31;12.30;99.90
31309;DHT22;17936;52.446;10.840;2023-03-23T00:05:58;12.30;99.90
31309;DHT22;17936;52.446;10.840;2023-03-23T00:08:34;12.40;99.90
31309;DHT22;17936;52.446;10.840;2023-03-23T00:11:04;12.40;99.90
31309;DHT22;17936;52.446;10.840;2023-03-23T00:13:30;12.40;99.90
31309;DHT22;17936;52.446;10.840;2023-03-23T00:15:56;12.50;99.90
31309;DHT22;17936;52.446;10.840;2023-03-23T00:18:23;12.50;99.90
31309;DHT22;17936;52.446;10.840;2023-03-23T00:20:54;12.50;99.90
31309;DHT22;17936;52.446;10.840;2023-03-23T00:23:22;12.60;99.90
31309;DHT22;17936;52.446;10.840;2023-03-23T00:25:53;12.60;99.90
31309;DHT22;17936;52.446;10.840;2023-03-23T00:28:22;12.50;99.90
31309;DHT22;17936;52.446;10.840;2023-03-23T00:31:01;12.50;99.90
31309;DHT22;17936;52.446;10.840;2023-03-23T00:33:30;12.40;99.90
31309;DHT22;17936;52.446;10.840;2023-03-23T00:35:58;12.50;99.90
31309;DHT22;17936;52.446;10.840;2023-03-23T00:38:24;12.60;99.90
31309;DHT22;17936;52.446;10.840;2023-03-23T00:40:50;12.40;99.90
31309;DHT22;17936;52.446;10.840;2023-03-23T00:43:17;12.50;99.90
31309;DHT22;17936;52.446;10.840;2023-03-23T00:45:43;12.50;99.90
31309;DHT22;17936;52.446;10.840;2023-03-23T00:48:10;12.50;99.90
31309;DHT22;17936;52.446;10.840;2023-03-23T00:50:38;12.50;99.90
31309;DHT22;17936;52.446;10.840;2023-03-23T00:53:04;12.50;99.90
31309;DHT22;17936;52.446;10.840;2023-03-23T00:55:29;12.50;99.90
31309;DHT22;17936;52.446;10.840;2023-03-23T00:57:56;12.60;99.90
31309;DHT22;17936;52.446;10.840;2023-03-23T01:00:22;12.50;99.90
31309;DHT22;17936;52.446;10.840;2023-03-23T01:02:49;12.50;99.90
31309;DHT22;17936;52.446;10.840;2023-03-23T01:05:17;12.50;99.90
31309;DHT22;17936;52.446;10.840;2023-03-23T01:07:45;12.50;99.90
31309;DHT22;17936;52.446;10.840;2023-03-23T01:10:11;12.30;99.90
31309;DHT22;17936;52.446;10.840;2023-03-23T01:12:46;12.40;99.90
31309;DHT22;17936;52.446;10.840;2023-03-23T01:15:16;12.30;99.90
31309;DHT22;17936;52.446;10.840;2023-03-23T01:17:43;12.20;99.90
31309;DHT22;17936;52.446;10.840;2023-03-23T01:20:10;12.10;99.90
31309;DHT22;17936;52.446;10.840;2023-03-23T01:22:37;11.90;99.90
31309;DHT22;17936;52.446;10.840;2023-03-23T01:25:04;11.90;99.90
31309;DHT22;17936;52.446;10.840;2023-03-23T01:27:29;11.90;99.90
31309;DHT22;17936;52.446;10.840;2023-03-23T01:29:55;11.80;99.90
31309;DHT22;17936;52.446;10.840;2023-03-23T01:32:21;11.80;99.90
31309;DHT22;17936;52.446;10.840;2023-03-23T01:34:46;11.60;99.90
31309;DHT22;17936;52.446;10.840;2023-03-23T01:37:12;11.60;99.90
31309;DHT22;17936;52.446;10.840;2023-03-23T01:39:38;11.60;99.90
31309;DHT22;17936;52.446;10.840;2023-03-23T01:42:04;11.40;99.90
31309;DHT22;17936;52.446;10.840;2023-03-23T01:46:55;11.30;99.90
31309;DHT22;17936;52.446;10.840;2023-03-23T01:49:31;11.30;99.90
31309;DHT22;17936;52.446;10.840;2023-03-23T01:52:06;11.20;99.90
31309;DHT22;17936;52.446;10.840;2023-03-23T01:54:33;11.20;99.90
31309;DHT22;17936;52.446;10.840;2023-03-23T01:57:03;11.20;99.90
31309;DHT22;17936;52.446;10.840;2023-03-23T01:59:30;11.20;99.90
31309;DHT22;17936;52.446;10.840;2023-03-23T02:01:57;11.10;99.90
31309;DHT22;17936;52.446;10.840;2023-03-23T02:04:24;11.10;99.90
31309;DHT22;17936;52.446;10.840;2023-03-23T02:06:51;11.10;99.90
31309;DHT22;17936;52.446;10.840;2023-03-23T02:09:18;11.10;99.90
31309;DHT22;17936;52.446;10.840;2023-03-23T02:11:45;11.00;99.90
31309;DHT22;17936;52.446;10.840;2023-03-23T02:14:11;11.10;99.90
31309;DHT22;17936;52.446;10.840;2023-03-23T02:16:54;11.10;99.90
31309;DHT22;17936;52.446;10.840;2023-03-23T02:19:42;11.10;99.90
31309;DHT22;17936;52.446;10.840;2023-03-23T02:24:55;11.00;99.90
31309;DHT22;17936;52.446;10.840;2023-03-23T02:30:36;10.90;99.90
31309;DHT22;17936;52.446;10.840;2023-03-23T02:35:52;10.90;99.90
31309;DHT22;17936;52.446;10.840;2023-03-23T02:38:37;10.90;99.90
31309;DHT22;17936;52.446;10.840;2023-03-23T02:41:03;10.90;99.90
31309;DHT22;17936;52.446;10.840;2023-03-23T02:43:39;10.90;99.90
31309;DHT22;17936;52.446;10.840;2023-03-23T02:46:07;10.90;99.90
31309;DHT22;17936;52.446;10.840;2023-03-23T02:48:33;10.90;99.90
31309;DHT22;17936;52.446;10.840;2023-03-23T02:51:02;10.90;99.90
31309;DHT22;17936;52.446;10.840;2023-03-23T02:53:29;10.90;99.90
31309;DHT22;17936;52.446;10.840;2023-03-23T02:55:56;10.90;99.90
31309;DHT22;17936;52.446;10.840;2023-03-23T02:58:24;10.90;99.90
31309;DHT22;17936;52.446;10.840;2023-03-23T03:00:50;10.80;99.90
31309;DHT22;17936;52.446;10.840;2023-03-23T03:03:19;10.90;99.90
31309;DHT22;17936;52.446;10.840;2023-03-23T03:05:56;10.90;99.90
31309;DHT22;17936;52.446;10.840;2023-03-23T03:11:13;10.90;99.90
31309;DHT22;17936;52.446;10.840;2023-03-23T03:13:49;10.90;99.90
31309;DHT22;17936;52.446;10.840;2023-03-23T03:16:34;11.00;99.90
31309;DHT22;17936;52.446;10.840;2023-03-23T03:19:23;11.00;99.90
31309;DHT22;17936;52.446;10.840;2023-03-23T03:21:52;11.00;99.90
31309;DHT22;17936;52.446;10.840;2023-03-23T03:24:19;11.10;99.90
31309;DHT22;17936;52.446;10.840;2023-03-23T03:26:48;11.10;99.90
31309;DHT22;17936;52.446;10.840;2023-03-23T03:29:21;11.20;99.90
31309;DHT22;17936;52.446;10.840;2023-03-23T03:31:50;11.20;99.90
31309;DHT22;17936;52.446;10.840;2023-03-23T03:34:17;11.20;99.90
31309;DHT22;17936;52.446;10.840;2023-03-23T03:36:47;11.20;99.90
31309;DHT22;17936;52.446;10.840;2023-03-23T03:39:14;11.20;99.90
31309;DHT22;17936;52.446;10.840;2023-03-23T03:41:42;11.30;99.90
31309;DHT22;17936;52.446;10.840;2023-03-23T03:44:08;11.30;99.90
31309;DHT22;17936;52.446;10.840;2023-03-23T03:46:35;11.40;99.90
31309;DHT22;17936;52.446;10.840;2023-03-23T03:49:03;11.30;99.90
31309;DHT22;17936;52.446;10.840;2023-03-23T03:51:29;11.30;99.90
31309;DHT22;17936;52.446;10.840;2023-03-23T03:53:56;11.30;99.90
31309;DHT22;17936;52.446;10.840;2023-03-23T03:56:22;11.30;99.90
31309;DHT22;17936;52.446;10.840;2023-03-23T03:58:49;11.20;99.90
31309;DHT22;17936;52.446;10.840;2023-03-23T04:01:16;11.20;99.90
31309;DHT22;17936;52.446;10.840;2023-03-23T04:03:43;11.20;99.90
31309;DHT22;17936;52.446;10.840;2023-03-23T04:06:09;11.10;99.90
31309;DHT22;17936;52.446;10.840;2023-03-23T04:08:36;11.20;99.90
31309;DHT22;17936;52.446;10.840;2023-03-23T04:11:03;11.20;99.90
31309;DHT22;17936;52.446;10.840;2023-03-23T04:13:29;11.20;99.90
31309;DHT22;17936;52.446;10.840;2023-03-23T04:15:55;11.20;99.90
31309;DHT22;17936;52.446;10.840;2023-03-23T04:18:21;11.20;99.90
31309;DHT22;17936;52.446;10.840;2023-03-23T04:20:48;11.20;99.90
31309;DHT22;17936;52.446;10.840;2023-03-23T04:23:15;11.20;99.90
31309;DHT22;17936;52.446;10.840;2023-03-23T04:25:45;11.20;99.90
31309;DHT22;17936;52.446;10.840;2023-03-23T04:28:12;11.30;99.90
31309;DHT22;17936;52.446;10.840;2023-03-23T04:30:38;11.20;99.90
31309;DHT22;17936;52.446;10.840;2023-03-23T04:33:03;11.20;99.90
31309;DHT22;17936;52.446;10.840;2023-03-23T04:35:30;11.10;99.90
31309;DHT22;17936;52.446;10.840;2023-03-23T04:37:56;11.00;99.90
31309;DHT22;17936;52.446;10.840;2023-03-23T04:40:22;11.00;99.90
31309;DHT22;17936;52.446;10.840;2023-03-23T04:42:48;11.00;99.90
31309;DHT22;17936;52.446;10.840;2023-03-23T04:45:19;10.90;99.90
31309;DHT22;17936;52.446;10.840;2023-03-23T04:47:50;10.90;99.90
31309;DHT22;17936;52.446;10.840;2023-03-23T04:50:23;10.90;99.90
31309;DHT22;17936;52.446;10.840;2023-03-23T04:52:50;10.90;99.90
31309;DHT22;17936;52.446;10.840;2023-03-23T04:55:17;10.90;99.90
31309;DHT22;17936;52.446;10.840;2023-03-23T04:57:44;10.90;99.90
31309;DHT22;17936;52.446;10.840;2023-03-23T05:00:10;10.90;99.90
31309;DHT22;17936;52.446;10.840;2023-03-23T05:02:42;10.80;99.90
31309;DHT22;17936;52.446;10.840;2023-03-23T05:05:09;10.80;99.90
31309;DHT22;17936;52.446;10.840;2023-03-23T05:07:37;10.70;99.90
31309;DHT22;17936;52.446;10.840;2023-03-23T05:10:03;10.80;99.90
31309;DHT22;17936;52.446;10.840;2023-03-23T05:12:29;10.80;99.90
31309;DHT22;17936;52.446;10.840;2023-03-23T05:14:55;10.70;99.90
31309;DHT22;17936;52.446;10.840;2023-03-23T05:17:21;10.70;99.90
31309;DHT22;17936;52.446;10.840;2023-03-23T05:19:50;10.70;99.90
31309;DHT22;17936;52.446;10.840;2023-03-23T05:22:16;10.70;99.90
31309;DHT22;17936;52.446;10.840;2023-03-23T05:24:42;10.70;99.90
31309;DHT22;17936;52.446;10.840;2023-03-23T05:27:09;10.60;99.90
31309;DHT22;17936;52.446;10.840;2023-03-23T05:29:35;10.60;99.90
31309;DHT22;17936;52.446;10.840;2023-03-23T05:32:05;10.60;99.90
31309;DHT22;17936;52.446;10.840;2023-03-23T05:34:31;10.60;99.90
31309;DHT22;17936;52.446;10.840;2023-03-23T05:37:00;10.60;99.90
31309;DHT22;17936;52.446;10.840;2023-03-23T05:39:27;10.60;99.90
31309;DHT22;17936;52.446;10.840;2023-03-23T05:41:54;10.60;99.90
31309;DHT22;17936;52.446;10.840;2023-03-23T05:44:20;10.50;99.90
31309;DHT22;17936;52.446;10.840;2023-03-23T05:46:46;10.60;99.90
31309;DHT22;17936;52.446;10.840;2023-03-23T05:49:16;10.60;99.90
31309;DHT22;17936;52.446;10.840;2023-03-23T05:51:45;10.60;99.90
31309;DHT22;17936;52.446;10.840;2023-03-23T05:54:12;10.60;99.90
31309;DHT22;17936;52.446;10.840;2023-03-23T05:56:39;10.60;99.90
31309;DHT22;17936;52.446;10.840;2023-03-23T05:59:05;10.60;99.90
31309;DHT22;17936;52.446;10.840;2023-03-23T06:01:31;10.70;99.90
31309;DHT22;17936;52.446;10.840;2023-03-23T06:03:57;10.70;99.90
31309;DHT22;17936;52.446;10.840;2023-03-23T06:06:28;10.70;99.90
31309;DHT22;17936;52.446;10.840;2023-03-23T06:08:55;10.70;99.90
31309;DHT22;17936;52.446;10.840;2023-03-23T06:11:23;10.80;99.90
31309;DHT22;17936;52.446;10.840;2023-03-23T06:13:49;10.80;99.90
31309;DHT22;17936;52.446;10.840;2023-03-23T06:16:15;10.80;99.90
31309;DHT22;17936;52.446;10.840;2023-03-23T06:18:41;10.80;99.90
31309;DHT22;17936;52.446;10.840;2023-03-23T06:21:09;10.80;99.90
31309;DHT22;17936;52.446;10.840;2023-03-23T06:23:34;10.90;99.90
31309;DHT22;17936;52.446;10.840;2023-03-23T06:26:04;10.90;99.90
31309;DHT22;17936;52.446;10.840;2023-03-23T06:28:30;10.90;99.90
31309;DHT22;17936;52.446;10.840;2023-03-23T06:31:02;10.90;99.90
31309;DHT22;17936;52.446;10.840;2023-03-23T06:33:31;10.90;99.90
31309;DHT22;17936;52.446;10.840;2023-03-23T06:35:57;10.90;99.90
31309;DHT22;17936;52.446;10.840;2023-03-23T06:38:23;10.90;99.90
31309;DHT22;17936;52.446;10.840;2023-03-23T06:40:54;10.90;99.90
31309;DHT22;17936;52.446;10.840;2023-03-23T06:43:20;10.90;99.90
31309;DHT22;17936;52.446;10.840;2023-03-23T06:45:46;11.00;99.90
31309;DHT22;17936;52.446;10.840;2023-03-23T06:48:12;11.00;99.90
31309;DHT22;17936;52.446;10.840;2023-03-23T06:50:38;11.00;99.90
31309;DHT22;17936;52.446;10.840;2023-03-23T06:53:04;11.00;99.90
31309;DHT22;17936;52.446;10.840;2023-03-23T06:55:30;11.10;99.90
31309;DHT22;17936;52.446;10.840;2023-03-23T06:57:56;11.10;99.90
31309;DHT22;17936;52.446;10.840;2023-03-23T07:00:21;11.20;99.90
31309;DHT22;17936;52.446;10.840;2023-03-23T07:02:47;11.20;99.90
31309;DHT22;17936;52.446;10.840;2023-03-23T07:05:13;11.20;99.90
31309;DHT22;17936;52.446;10.840;2023-03-23T07:07:41;11.30;99.90
31309;DHT22;17936;52.446;10.840;2023-03-23T07:10:08;11.40;99.90
31309;DHT22;17936;52.446;10.840;2023-03-23T07:12:35;11.40;99.90
31309;DHT22;17936;52.446;10.840;2023-03-23T07:15:02;11.50;99.90
31309;DHT22;17936;52.446;10.840;2023-03-23T07:17:28;11.60;99.90
31309;DHT22;17936;52.446;10.840;2023-03-23T07:19:54;11.60;99.90
31309;DHT22;17936;52.446;10.840;2023-03-23T07:22:19;11.70;99.90
31309;DHT22;17936;52.446;10.840;2023-03-23T07:24:45;11.80;99.90
31309;DHT22;17936;52.446;10.840;2023-03-23T07:27:11;11.90;99.90
31309;DHT22;17936;52.446;10.840;2023-03-23T07:29:37;12.00;99.90
31309;DHT22;17936;52.446;10.840;2023-03-23T07:32:04;12.30;99.90
31309;DHT22;17936;52.446;10.840;2023-03-23T07:34:30;12.60;99.90
31309;DHT22;17936;52.446;10.840;2023-03-23T07:36:57;12.70;99.90
31309;DHT22;17936;52.446;10.840;2023-03-23T07:39:22;12.60;99.90
31309;DHT22;17936;52.446;10.840;2023-03-23T07:41:49;12.40;99.90
31309;DHT22;17936;52.446;10.840;2023-03-23T07:44:15;12.40;99.90
31309;DHT22;17936;52.446;10.840;2023-03-23T07:46:41;12.50;99.90
31309;DHT22;17936;52.446;10.840;2023-03-23T07:49:07;12.50;99.90
31309;DHT22;17936;52.446;10.840;2023-03-23T07:51:34;12.40;99.90
31309;DHT22;17936;52.446;10.840;2023-03-23T07:54:00;12.40;99.90
31309;DHT22;17936;52.446;10.840;2023-03-23T07:56:28;12.40;99.90
31309;DHT22;17936;52.446;10.840;2023-03-23T07:58:54;12.40;99.90
31309;DHT22;17936;52.446;10.840;2023-03-23T08:01:20;12.60;99.90
31309;DHT22;17936;52.446;10.840;2023-03-23T08:03:45;12.60;99.90
31309;DHT22;17936;52.446;10.840;2023-03-23T08:06:12;12.70;99.90
31309;DHT22;17936;52.446;10.840;2023-03-23T08:08:38;13.00;99.90
31309;DHT22;17936;52.446;10.840;2023-03-23T08:11:05;13.00;99.90
31309;DHT22;17936;52.446;10.840;2023-03-23T08:13:31;13.00;99.90
31309;DHT22;17936;52.446;10.840;2023-03-23T08:15:58;13.20;99.90
31309;DHT22;17936;52.446;10.840;2023-03-23T08:18:25;13.10;99.90
31309;DHT22;17936;52.446;10.840;2023-03-23T08:20:51;13.10;99.90
31309;DHT22;17936;52.446;10.840;2023-03-23T08:23:18;13.20;99.90
31309;DHT22;17936;52.446;10.840;2023-03-23T08:25:43;13.40;99.90
31309;DHT22;17936;52.446;10.840;2023-03-23T08:28:09;13.40;99.90
31309;DHT22;17936;52.446;10.840;2023-03-23T08:30:35;13.30;99.90
31309;DHT22;17936;52.446;10.840;2023-03-23T08:33:03;13.30;99.90
31309;DHT22;17936;52.446;10.840;2023-03-23T08:35:30;13.30;99.90
31309;DHT22;17936;52.446;10.840;2023-03-23T08:37:56;13.40;99.90
31309;DHT22;17936;52.446;10.840;2023-03-23T08:40:23;13.40;99.90
31309;DHT22;17936;52.446;10.840;2023-03-23T08:42:50;13.40;99.90
31309;DHT22;17936;52.446;10.840;2023-03-23T08:45:19;13.40;99.90
31309;DHT22;17936;52.446;10.840;2023-03-23T08:47:46;13.50;99.90
31309;DHT22;17936;52.446;10.840;2023-03-23T08:50:16;13.50;99.90
31309;DHT22;17936;52.446;10.840;2023-03-23T08:52:43;13.50;99.90
31309;DHT22;17936;52.446;10.840;2023-03-23T08:55:09;13.50;99.90
31309;DHT22;17936;52.446;10.840;2023-03-23T08:57:35;13.40;99.90
31309;DHT22;17936;52.446;10.840;2023-03-23T09:00:03;13.40;99.90
31309;DHT22;17936;52.446;10.840;2023-03-23T09:02:38;13.30;99.90
31309;DHT22;17936;52.446;10.840;2023-03-23T09:05:04;13.50;99.90
31309;DHT22;17936;52.446;10.840;2023-03-23T09:07:30;13.50;99.90
31309;DHT22;17936;52.446;10.840;2023-03-23T09:09:55;13.50;99.90
31309;DHT22;17936;52.446;10.840;2023-03-23T09:12:21;13.50;99.90
31309;DHT22;17936;52.446;10.840;2023-03-23T09:14:47;13.60;99.90
31309;DHT22;17936;52.446;10.840;2023-03-23T09:17:13;13.70;99.90
31309;DHT22;17936;52.446;10.840;2023-03-23T09:19:39;13.70;99.90
31309;DHT22;17936;52.446;10.840;2023-03-23T09:22:05;13.80;99.90
31309;DHT22;17936;52.446;10.840;2023-03-23T09:24:30;13.80;99.90
31309;DHT22;17936;52.446;10.840;2023-03-23T09:26:56;13.90;99.90
31309;DHT22;17936;52.446;10.840;2023-03-23T09:29:24;13.90;99.90
31309;DHT22;17936;52.446;10.840;2023-03-23T09:31:50;13.90;99.90
31309;DHT22;17936;52.446;10.840;2023-03-23T09:34:16;13.90;99.90
31309;DHT22;17936;52.446;10.840;2023-03-23T09:36:43;14.00;99.90
31309;DHT22;17936;52.446;10.840;2023-03-23T09:39:09;14.00;99.90
31309;DHT22;17936;52.446;10.840;2023-03-23T09:49:43;14.20;99.90
31309;DHT22;17936;52.446;10.840;2023-03-23T09:52:15;14.20;99.90
31309;DHT22;17936;52.446;10.840;2023-03-23T09:54:52;14.10;99.90
31309;DHT22;17936;52.446;10.840;2023-03-23T09:57:32;14.10;99.90
31309;DHT22;17936;52.446;10.840;2023-03-23T10:03:10;14.10;99.90
31309;DHT22;17936;52.446;10.840;2023-03-23T10:05:50;14.00;99.90
31309;DHT22;17936;52.446;10.840;2023-03-23T10:08:19;14.00;99.90
31309;DHT22;17936;52.446;10.840;2023-03-23T10:11:04;14.10;99.90
31309;DHT22;17936;52.446;10.840;2023-03-23T10:13:53;14.30;99.90
31309;DHT22;17936;52.446;10.840;2023-03-23T10:16:22;14.10;99.90
31309;DHT22;17936;52.446;10.840;2023-03-23T10:18:58;14.20;99.90
31309;DHT22;17936;52.446;10.840;2023-03-23T10:21:24;14.10;99.90
31309;DHT22;17936;52.446;10.840;2023-03-23T10:23:57;14.10;99.90
31309;DHT22;17936;52.446;10.840;2023-03-23T10:29:30;14.00;99.90
31309;DHT22;17936;52.446;10.840;2023-03-23T10:32:45;14.00;99.90
31309;DHT22;17936;52.446;10.840;2023-03-23T10:35:18;14.10;99.90
31309;DHT22;17936;52.446;10.840;2023-03-23T10:37:56;14.10;99.90
31309;DHT22;17936;52.446;10.840;2023-03-23T10:40:27;13.90;99.90
31309;DHT22;17936;52.446;10.840;2023-03-23T10:42:53;14.00;99.90
31309;DHT22;17936;52.446;10.840;2023-03-23T10:45:26;14.00;99.90
31309;DHT22;17936;52.446;10.840;2023-03-23T10:47:59;14.10;99.90
31309;DHT22;17936;52.446;10.840;2023-03-23T10:50:31;14.10;99.90
31309;DHT22;17936;52.446;10.840;2023-03-23T10:52:59;14.20;99.90
31309;DHT22;17936;52.446;10.840;2023-03-23T10:55:39;14.10;99.90
31309;DHT22;17936;52.446;10.840;2023-03-23T10:58:09;14.10;99.90
31309;DHT22;17936;52.446;10.840;2023-03-23T11:00:43;14.20;99.90
31309;DHT22;17936;52.446;10.840;2023-03-23T11:05:53;14.10;99.90
31309;DHT22;17936;52.446;10.840;2023-03-23T11:08:22;14.10;99.90
31309;DHT22;17936;52.446;10.840;2023-03-23T11:10:50;14.10;99.90
31309;DHT22;17936;52.446;10.840;2023-03-23T11:13:19;14.00;99.90
31309;DHT22;17936;52.446;10.840;2023-03-23T11:15:46;14.00;99.90
31309;DHT22;17936;52.446;10.840;2023-03-23T11:18:19;14.00;99.90
31309;DHT22;17936;52.446;10.840;2023-03-23T11:20:48;14.00;99.90
31309;DHT22;17936;52.446;10.840;2023-03-23T11:23:27;14.20;99.90
31309;DHT22;17936;52.446;10.840;2023-03-23T11:28:51;14.50;99.90
31309;DHT22;17936;52.446;10.840;2023-03-23T11:31:21;15.20;99.90
31309;DHT22;17936;52.446;10.840;2023-03-23T11:33:55;15.30;99.90
31309;DHT22;17936;52.446;10.840;2023-03-23T11:36:33;15.20;99.90
31309;DHT22;17936;52.446;10.840;2023-03-23T11:38:59;15.10;99.90
31309;DHT22;17936;52.446;10.840;2023-03-23T11:41:31;15.10;99.90
31309;DHT22;17936;52.446;10.840;2023-03-23T11:44:03;15.20;99.90
31309;DHT22;17936;52.446;10.840;2023-03-23T11:52:14;15.80;99.90
31309;DHT22;17936;52.446;10.840;2023-03-23T11:54:46;16.20;99.90
31309;DHT22;17936;52.446;10.840;2023-03-23T11:57:15;16.20;99.90
31309;DHT22;17936;52.446;10.840;2023-03-23T11:59:41;16.30;99.90
31309;DHT22;17936;52.446;10.840;2023-03-23T12:02:23;16.50;99.90
31309;DHT22;17936;52.446;10.840;2023-03-23T12:07:46;16.70;99.90
31309;DHT22;17936;52.446;10.840;2023-03-23T12:12:59;16.30;99.90
31309;DHT22;17936;52.446;10.840;2023-03-23T12:26:52;15.90;99.90
31309;DHT22;17936;52.446;10.840;2023-03-23T12:29:27;16.00;99.90
31309;DHT22;17936;52.446;10.840;2023-03-23T12:34:47;16.70;99.90
31309;DHT22;17936;52.446;10.840;2023-03-23T12:37:21;16.50;99.90
31309;DHT22;17936;52.446;10.840;2023-03-23T12:42:43;16.60;99.90
31309;DHT22;17936;52.446;10.840;2023-03-23T12:45:41;17.20;99.90
31309;DHT22;17936;52.446;10.840;2023-03-23T12:48:15;16.90;99.90
31309;DHT22;17936;52.446;10.840;2023-03-23T12:51:00;16.40;99.90
31309;DHT22;17936;52.446;10.840;2023-03-23T12:53:31;16.10;99.90
31309;DHT22;17936;52.446;10.840;2023-03-23T12:56:20;16.10;99.90
31309;DHT22;17936;52.446;10.840;2023-03-23T12:58:51;16.00;99.90
31309;DHT22;17936;52.446;10.840;2023-03-23T13:01:30;16.00;99.90
31309;DHT22;17936;52.446;10.840;2023-03-23T13:04:20;16.20;99.90
31309;DHT22;17936;52.446;10.840;2023-03-23T13:06:48;16.10;99.90
31309;DHT22;17936;52.446;10.840;2023-03-23T13:09:29;15.90;99.90
31309;DHT22;17936;52.446;10.840;2023-03-23T13:11:58;15.90;99.90
31309;DHT22;17936;52.446;10.840;2023-03-23T13:22:46;15.30;99.90
31309;DHT22;17936;52.446;10.840;2023-03-23T13:25:22;15.20;99.90
31309;DHT22;17936;52.446;10.840;2023-03-23T13:28:00;14.60;99.90
31309;DHT22;17936;52.446;10.840;2023-03-23T13:30:30;13.50;99.90
31309;DHT22;17936;52.446;10.840;2023-03-23T13:33:04;13.00;99.90
31309;DHT22;17936;52.446;10.840;2023-03-23T13:35:38;12.80;99.90
31309;DHT22;17936;52.446;10.840;2023-03-23T13:38:21;12.70;99.90
31309;DHT22;17936;52.446;10.840;2023-03-23T13:40:50;12.60;99.90
31309;DHT22;17936;52.446;10.840;2023-03-23T13:43:32;12.90;99.90
31309;DHT22;17936;52.446;10.840;2023-03-23T13:48:49;13.30;99.90
31309;DHT22;17936;52.446;10.840;2023-03-23T13:54:31;13.10;99.90
31309;DHT22;17936;52.446;10.840;2023-03-23T13:57:00;13.00;99.90
31309;DHT22;17936;52.446;10.840;2023-03-23T13:59:46;12.90;99.90
31309;DHT22;17936;52.446;10.840;2023-03-23T14:02:31;12.90;99.90
31309;DHT22;17936;52.446;10.840;2023-03-23T14:05:30;12.90;99.90
31309;DHT22;17936;52.446;10.840;2023-03-23T14:10:40;13.00;99.90
31309;DHT22;17936;52.446;10.840;2023-03-23T14:13:15;13.20;99.90
31309;DHT22;17936;52.446;10.840;2023-03-23T14:15:44;13.20;99.90
31309;DHT22;17936;52.446;10.840;2023-03-23T14:18:15;13.40;99.90
31309;DHT22;17936;52.446;10.840;2023-03-23T14:20:42;13.40;99.90
31309;DHT22;17936;52.446;10.840;2023-03-23T14:23:18;13.50;99.90
31309;DHT22;17936;52.446;10.840;2023-03-23T14:25:53;13.70;99.90
31309;DHT22;17936;52.446;10.840;2023-03-23T14:28:20;13.30;99.90
31309;DHT22;17936;52.446;10.840;2023-03-23T14:30:49;13.40;99.90
31309;DHT22;17936;52.446;10.840;2023-03-23T14:33:18;13.40;99.90
31309;DHT22;17936;52.446;10.840;2023-03-23T14:35:46;13.40;99.90
31309;DHT22;17936;52.446;10.840;2023-03-23T14:38:22;13.50;99.90
31309;DHT22;17936;52.446;10.840;2023-03-23T14:41:00;13.40;99.90
31309;DHT22;17936;52.446;10.840;2023-03-23T14:43:26;13.30;99.90
31309;DHT22;17936;52.446;10.840;2023-03-23T14:45:54;13.30;99.90
31309;DHT22;17936;52.446;10.840;2023-03-23T14:48:21;13.10;99.90
31309;DHT22;17936;52.446;10.840;2023-03-23T14:50:52;13.10;99.90
31309;DHT22;17936;52.446;10.840;2023-03-23T14:53:26;13.00;99.90
31309;DHT22;17936;52.446;10.840;2023-03-23T14:55:54;13.00;99.90
31309;DHT22;17936;52.446;10.840;2023-03-23T14:58:23;12.90;99.90
31309;DHT22;17936;52.446;10.840;2023-03-23T15:03:20;12.60;99.90
31309;DHT22;17936;52.446;10.840;2023-03-23T15:05:50;12.50;99.90
31309;DHT22;17936;52.446;10.840;2023-03-23T15:08:43;12.40;99.90
31309;DHT22;17936;52.446;10.840;2023-03-23T15:13:47;12.10;99.90
31309;DHT22;17936;52.446;10.840;2023-03-23T15:16:21;11.80;99.90
31309;DHT22;17936;52.446;10.840;2023-03-23T15:18:54;11.60;99.90
31309;DHT22;17936;52.446;10.840;2023-03-23T15:21:29;11.70;99.90
31309;DHT22;17936;52.446;10.840;2023-03-23T15:23:56;11.70;99.90
31309;DHT22;17936;52.446;10.840;2023-03-23T15:26:28;11.60;99.90
31309;DHT22;17936;52.446;10.840;2023-03-23T15:29:24;11.70;99.90
31309;DHT22;17936;52.446;10.840;2023-03-23T15:31:55;11.70;99.90
31309;DHT22;17936;52.446;10.840;2023-03-23T15:34:32;11.70;99.90
31309;DHT22;17936;52.446;10.840;2023-03-23T15:37:01;11.70;99.90
31309;DHT22;17936;52.446;10.840;2023-03-23T15:39:29;11.70;99.90
31309;DHT22;17936;52.446;10.840;2023-03-23T15:41:56;11.80;99.90
31309;DHT22;17936;52.446;10.840;2023-03-23T15:44:32;11.80;99.90
31309;DHT22;17936;52.446;10.840;2023-03-23T15:47:16;11.80;99.90
31309;DHT22;17936;52.446;10.840;2023-03-23T15:49:44;11.90;99.90
31309;DHT22;17936;52.446;10.840;2023-03-23T15:52:12;11.90;99.90
31309;DHT22;17936;52.446;10.840;2023-03-23T15:54:45;11.80;99.90
31309;DHT22;17936;52.446;10.840;2023-03-23T15:57:11;11.80;99.90
31309;DHT22;17936;52.446;10.840;2023-03-23T15:59:36;11.90;99.90
31309;DHT22;17936;52.446;10.840;2023-03-23T16:02:02;11.90;99.90
31309;DHT22;17936;52.446;10.840;2023-03-23T16:04:28;11.90;99.90
31309;DHT22;17936;52.446;10.840;2023-03-23T16:06:55;12.00;99.90
31309;DHT22;17936;52.446;10.840;2023-03-23T16:09:23;11.90;99.90
31309;DHT22;17936;52.446;10.840;2023-03-23T16:11:49;11.90;99.90
31309;DHT22;17936;52.446;10.840;2023-03-23T16:14:14;11.90;99.90
31309;DHT22;17936;52.446;10.840;2023-03-23T16:16:46;11.90;99.90
31309;DHT22;17936;52.446;10.840;2023-03-23T16:19:13;11.90;99.90
31309;DHT22;17936;52.446;10.840;2023-03-23T16:21:39;11.90;99.90
31309;DHT22;17936;52.446;10.840;2023-03-23T16:24:05;11.90;99.90
31309;DHT22;17936;52.446;10.840;2023-03-23T16:26:31;11.90;99.90
31309;DHT22;17936;52.446;10.840;2023-03-23T16:28:56;12.00;99.90
31309;DHT22;17936;52.446;10.840;2023-03-23T16:31:22;12.10;99.90
31309;DHT22;17936;52.446;10.840;2023-03-23T16:33:47;12.00;99.90
31309;DHT22;17936;52.446;10.840;2023-03-23T16:36:14;12.10;99.90
31309;DHT22;17936;52.446;10.840;2023-03-23T16:38:40;12.20;99.90
31309;DHT22;17936;52.446;10.840;2023-03-23T16:41:06;12.30;99.90
31309;DHT22;17936;52.446;10.840;2023-03-23T16:43:33;12.30;99.90
31309;DHT22;17936;52.446;10.840;2023-03-23T16:45:58;12.30;99.90
31309;DHT22;17936;52.446;10.840;2023-03-23T16:48:24;12.20;99.90
31309;DHT22;17936;52.446;10.840;2023-03-23T16:50:51;12.20;99.90
31309;DHT22;17936;52.446;10.840;2023-03-23T16:53:17;12.30;99.90